Hlavní strana
METAR-TAF:

METAR-TAF

Letiště :

Røros, Norsko

zeměpisná šířka: 62-35N, zeměpisná délka: 011-21E, výška: 626 m

Aktuální stav počasí

Zpráva byla vytvořena před 23 minutami, v 13:20 UTC
Západní vítr 9 kt, proměnlivý mezi západojihozápadním a severozápadním
Teplota 13°C
Vlhkost vzduchu 41%
Tlak 1027 hPa
Viditelnost 10 km a více
Žádná oblačnost pod 1500 m, nevyskytují se cumulonimby.

METAR: ENRO 261320Z 28009KT 250V310 CAVOK 13/00 Q1027

Čas: 15:43 (13:43 UTC)

Předpověď počasí

Zpráva byla vytvořena před 2 hodinami a 43 minutami, v 11:00 UTC
Předpověď platná od 26 v 12 UTC do 26 v 18 UTC
Jižní vítr 8 kt
Viditelnost 10 km a více
Oblačno až skoro zataženo ve výšce 4500 ft
Dočasný
od 26 v 12 UTC do 26 v 16 UTC
Západojihozápadní vítr 12 kt
Pravděpodobnost 30%
od 26 v 15 UTC do 26 v 18 UTC
Severoseverozápadní vítr 10 kt
Oblačno až skoro zataženo ve výšce 1400 ft

TAF: ENRO 261100Z 2612/2618 17008KT 9999 BKN045 TEMPO 2612/2616 24012KT PROB30 2615/2618 34010KT BKN014

Stav a předpovědi počasí z více než 4 000 letišť (zprávy METAR a TAF).

Červené a žluté tečky na mapě představují dostupné meteorologické stanice.

Když kurzor umístíte na tečku, zobrazí se název stanice.

Pak kliknutím zobrazíte stav a předpověď počasí.

Chcete-li změnit mapu, kliknutím na zelené tlačítko se znaménkem +mapu přiblížíte, kliknutím na zelené tlačítko se znaménkem – mapu oddálíte a kliknutím na zelené šipky přejdete na sousední mapy.


METAR-TAF: